createdAt,value
2019-01-14T00:00:04.718Z,3.74
2019-01-14T00:05:01.633Z,3.56
2019-01-14T00:09:58.578Z,3.34
2019-01-14T00:14:55.499Z,3.54
2019-01-14T00:19:52.449Z,3.71
2019-01-14T00:24:49.402Z,3.86
2019-01-14T00:29:46.343Z,4.03
2019-01-14T00:34:43.267Z,3.62
2019-01-14T00:39:40.222Z,3.73
2019-01-14T00:44:37.128Z,3.83
2019-01-14T00:49:35.314Z,4.01
2019-01-14T00:54:32.252Z,3.85
2019-01-14T00:59:29.209Z,3.69
2019-01-14T01:04:26.112Z,3.92
2019-01-14T01:09:23.082Z,4.04
2019-01-14T01:14:20.018Z,3.97
2019-01-14T01:19:16.972Z,4.04
2019-01-14T01:24:13.876Z,3.96
2019-01-14T01:29:10.821Z,3.78
2019-01-14T01:34:07.733Z,3.96
2019-01-14T01:39:06.364Z,3.95
2019-01-14T01:44:03.488Z,3.84
2019-01-14T01:49:00.843Z,3.74
2019-01-14T01:53:59.106Z,3.49
2019-01-14T01:58:56.062Z,3.92
2019-01-14T02:03:52.970Z,3.72
2019-01-14T02:08:49.935Z,3.43
2019-01-14T02:13:47.447Z,3.44
2019-01-14T02:18:44.390Z,3.51
2019-01-14T02:23:41.413Z,3.52
2019-01-14T02:28:38.359Z,3.65
2019-01-14T02:33:35.370Z,3.58
2019-01-14T02:38:32.320Z,3.59
2019-01-14T02:43:29.240Z,3.64
2019-01-14T02:48:26.363Z,3.68
2019-01-14T02:53:23.281Z,3.79
2019-01-14T02:58:21.487Z,3.94
2019-01-14T03:03:18.413Z,3.69
2019-01-14T03:08:15.360Z,3.45
2019-01-14T03:13:12.340Z,3.65
2019-01-14T03:18:09.293Z,3.55
2019-01-14T03:23:06.191Z,3.78
2019-01-14T03:28:03.169Z,3.75
2019-01-14T03:33:00.072Z,3.57
2019-01-14T03:37:57.013Z,3.65
2019-01-14T03:42:53.931Z,3.92
2019-01-14T03:47:50.893Z,4.04
2019-01-14T03:52:47.813Z,4.00
2019-01-14T03:57:44.746Z,4.14
2019-01-14T04:02:42.294Z,4.18
2019-01-14T04:07:39.256Z,4.10
2019-01-14T04:12:36.151Z,4.27
2019-01-14T04:17:34.991Z,4.32
2019-01-14T04:22:33.815Z,4.48
2019-01-14T04:27:30.757Z,4.50
2019-01-14T04:32:27.759Z,4.33
2019-01-14T04:37:24.709Z,4.45
2019-01-14T04:42:21.615Z,4.43
2019-01-14T04:47:18.575Z,4.39
2019-01-14T04:52:15.482Z,4.41
2019-01-14T04:57:12.433Z,4.57
2019-01-14T05:02:09.343Z,4.62
2019-01-14T05:07:06.329Z,4.53
2019-01-14T05:12:03.231Z,4.69
2019-01-14T05:17:00.197Z,4.66
2019-01-14T05:21:57.097Z,4.71
2019-01-14T05:26:54.062Z,4.70
2019-01-14T05:31:50.971Z,4.74
2019-01-14T05:36:47.932Z,4.86
2019-01-14T05:41:44.878Z,4.83
2019-01-14T05:46:42.150Z,4.83
2019-01-14T05:51:39.058Z,4.88
2019-01-14T05:56:36.013Z,4.92
2019-01-14T06:01:32.912Z,4.92
2019-01-14T06:06:29.867Z,4.98
2019-01-14T06:11:27.649Z,4.98
2019-01-14T06:16:24.593Z,4.91
2019-01-14T06:21:21.498Z,5.02
2019-01-14T06:26:18.569Z,5.00
2019-01-14T06:31:15.485Z,4.87
2019-01-14T06:36:12.450Z,4.94
2019-01-14T06:41:09.363Z,4.97
2019-01-14T06:46:06.325Z,4.98
2019-01-14T06:51:03.430Z,5.02
2019-01-14T06:56:00.366Z,5.21
2019-01-14T07:01:00.077Z,5.12
2019-01-14T07:05:57.025Z,5.11
2019-01-14T07:10:54.041Z,5.15
2019-01-14T07:15:51.962Z,5.16
2019-01-14T07:20:48.870Z,5.05
2019-01-14T07:25:45.932Z,4.98
2019-01-14T07:30:42.855Z,5.11
2019-01-14T07:35:39.896Z,5.10
2019-01-14T07:40:37.122Z,4.91
2019-01-14T07:45:34.061Z,5.13
2019-01-14T07:50:30.984Z,5.22
2019-01-14T07:55:27.948Z,5.25
2019-01-14T08:00:24.842Z,5.12
2019-01-14T08:05:21.799Z,5.17
2019-01-14T08:10:18.723Z,5.16
2019-01-14T08:15:18.818Z,5.24
2019-01-14T08:20:15.886Z,5.27
2019-01-14T08:25:14.144Z,5.40
2019-01-14T08:30:17.504Z,5.17
2019-01-14T08:35:14.857Z,5.19
2019-01-14T08:40:14.494Z,5.27
2019-01-14T08:45:12.819Z,5.05
2019-01-14T08:50:16.917Z,5.35
2019-01-14T08:55:13.912Z,5.40
2019-01-14T09:00:17.413Z,5.54
2019-01-14T09:05:14.871Z,5.45
2019-01-14T09:10:16.812Z,5.51
2019-01-14T09:15:16.622Z,5.47
2019-01-14T09:20:20.136Z,5.65
2019-01-14T09:25:17.147Z,5.43
2019-01-14T09:30:19.755Z,5.62
2019-01-14T09:35:16.651Z,5.58
2019-01-14T09:40:20.352Z,5.59
2019-01-14T09:45:17.240Z,5.65
2019-01-14T09:50:15.130Z,5.65
2019-01-14T09:55:14.906Z,5.61
2019-01-14T10:00:12.161Z,5.52
2019-01-14T10:05:12.327Z,5.82
2019-01-14T10:10:12.785Z,5.70
2019-01-14T10:15:13.625Z,5.84
2019-01-14T10:20:11.669Z,5.77
2019-01-14T10:25:08.726Z,5.71
2019-01-14T10:30:18.221Z,5.56
2019-01-14T10:35:15.120Z,5.32
2019-01-14T10:40:15.183Z,5.39
2019-01-14T10:45:21.446Z,5.41
2019-01-14T10:50:19.064Z,5.25
2019-01-14T10:55:16.885Z,5.36
2019-01-14T11:00:21.247Z,5.34
2019-01-14T11:05:23.113Z,5.42
2019-01-14T11:10:20.251Z,5.36
2019-01-14T11:15:19.790Z,5.44
2019-01-14T11:20:26.700Z,5.39
2019-01-14T11:25:24.483Z,5.01
2019-01-14T11:30:28.863Z,4.69
2019-01-14T11:35:25.767Z,4.40
2019-01-14T11:40:26.769Z,4.86
2019-01-14T11:45:23.671Z,4.93
2019-01-14T11:50:20.637Z,5.12
2019-01-14T11:55:17.530Z,5.16
2019-01-14T12:00:23.766Z,5.27
2019-01-14T12:05:21.187Z,5.61
2019-01-14T12:10:18.221Z,5.13
2019-01-14T12:15:22.045Z,4.80
2019-01-14T12:20:20.083Z,4.39
2019-01-14T12:25:17.218Z,4.34
2019-01-14T12:30:36.444Z,4.31
2019-01-14T12:35:33.367Z,4.18
2019-01-14T12:40:30.356Z,4.46
2019-01-14T12:45:27.614Z,4.55
2019-01-14T12:50:24.861Z,4.93
2019-01-14T12:55:21.764Z,5.13
2019-01-14T13:00:27.311Z,5.25
2019-01-14T13:05:26.315Z,5.64
2019-01-14T13:10:23.258Z,5.18
2019-01-14T13:15:25.417Z,5.83
2019-01-14T13:20:22.655Z,6.05
2019-01-14T13:25:19.661Z,5.85
2019-01-14T13:30:24.042Z,5.57
2019-01-14T13:35:20.945Z,5.67
2019-01-14T13:40:17.941Z,5.58
2019-01-14T13:45:18.646Z,5.46
2019-01-14T13:50:24.400Z,4.75
2019-01-14T13:55:21.413Z,4.86
2019-01-14T14:00:23.714Z,3.39
2019-01-14T14:05:20.742Z,2.93
2019-01-14T14:10:24.092Z,2.86
2019-01-14T14:15:21.493Z,2.49
2019-01-14T14:20:18.961Z,2.38
2019-01-14T14:25:16.093Z,2.53
2019-01-14T14:30:29.287Z,2.21
2019-01-14T14:35:26.377Z,2.10
2019-01-14T14:40:23.611Z,2.21
2019-01-14T14:45:22.510Z,2.02
2019-01-14T14:50:20.379Z,2.17
2019-01-14T14:55:17.604Z,2.11
2019-01-14T15:00:17.921Z,2.16
2019-01-14T15:05:15.371Z,2.15
2019-01-14T15:10:15.780Z,1.96
2019-01-14T15:15:16.540Z,1.97
2019-01-14T15:20:16.398Z,2.01
2019-01-14T15:25:13.527Z,2.06
2019-01-14T15:30:18.311Z,2.22
2019-01-14T15:35:16.560Z,2.18
2019-01-14T15:40:16.858Z,2.24
2019-01-14T15:45:16.765Z,2.14
2019-01-14T15:50:13.733Z,2.19
2019-01-14T15:55:16.264Z,2.09
2019-01-14T16:00:17.233Z,1.75
2019-01-14T16:05:16.445Z,2.13
2019-01-14T16:10:16.709Z,1.66
2019-01-14T16:15:13.878Z,1.47
2019-01-14T16:20:14.732Z,1.43
2019-01-14T16:25:11.746Z,1.54
2019-01-14T16:30:24.367Z,1.69
2019-01-14T16:35:21.536Z,1.88
2019-01-14T16:40:18.566Z,2.00
2019-01-14T16:45:19.552Z,1.94
2019-01-14T16:50:17.124Z,1.97
2019-01-14T16:55:15.869Z,1.91
2019-01-14T17:00:16.448Z,1.92
2019-01-14T17:05:14.470Z,1.94
2019-01-14T17:10:14.116Z,1.91
2019-01-14T17:15:11.331Z,1.94
2019-01-14T17:20:19.326Z,1.82
2019-01-14T17:25:16.373Z,1.73
2019-01-14T17:30:16.515Z,1.64
2019-01-14T17:35:14.271Z,1.58
2019-01-14T17:40:15.634Z,1.63
2019-01-14T17:45:12.896Z,1.75
2019-01-14T17:50:13.502Z,1.45
2019-01-14T17:55:10.582Z,1.54
2019-01-14T18:00:19.393Z,1.38
2019-01-14T18:05:16.395Z,1.02
2019-01-14T18:10:18.972Z,1.21
2019-01-14T18:15:16.197Z,1.01
2019-01-14T18:20:15.971Z,1.26
2019-01-14T18:25:14.150Z,1.29
2019-01-14T18:30:17.936Z,1.48
2019-01-14T18:35:16.972Z,1.11
2019-01-14T18:40:16.014Z,1.00
2019-01-14T18:45:15.620Z,0.83
2019-01-14T18:50:15.979Z,0.97
2019-01-14T18:55:13.144Z,0.77
2019-01-14T19:00:16.918Z,0.59
2019-01-14T19:05:14.006Z,0.61
2019-01-14T19:10:12.673Z,0.64
2019-01-14T19:15:16.746Z,0.74
2019-01-14T19:20:23.273Z,0.59
2019-01-14T19:25:20.371Z,0.61
2019-01-14T19:30:21.269Z,0.61
2019-01-14T19:35:18.568Z,0.42
2019-01-14T19:40:18.076Z,0.49
2019-01-14T19:45:18.457Z,0.62
2019-01-14T19:50:18.722Z,0.51
2019-01-14T19:55:15.791Z,0.50
2019-01-14T20:00:25.289Z,0.60
2019-01-14T20:05:22.212Z,0.64
2019-01-14T20:10:19.221Z,0.55
2019-01-14T20:15:19.805Z,0.43
2019-01-14T20:20:17.002Z,0.37
2019-01-14T20:25:14.259Z,0.56
2019-01-14T20:30:19.108Z,0.45
2019-01-14T20:35:16.685Z,0.41
2019-01-14T20:40:15.389Z,0.60
2019-01-14T20:45:15.118Z,0.70
2019-01-14T20:50:15.341Z,0.68
2019-01-14T20:55:12.666Z,0.70
2019-01-14T21:00:17.115Z,0.66
2019-01-14T21:05:14.375Z,0.39
2019-01-14T21:10:14.511Z,0.29
2019-01-14T21:15:11.669Z,0.44
2019-01-14T21:20:22.947Z,0.36
2019-01-14T21:25:21.842Z,0.37
2019-01-14T21:30:21.911Z,0.33
2019-01-14T21:35:18.928Z,0.14
2019-01-14T21:40:16.078Z,0.37
2019-01-14T21:45:14.220Z,0.27
2019-01-14T21:50:16.924Z,0.11
2019-01-14T21:55:19.831Z,0.32
2019-01-14T22:00:21.729Z,0.29
2019-01-14T22:05:18.958Z,0.13
2019-01-14T22:10:22.950Z,0.41
2019-01-14T22:15:19.848Z,0.27
2019-01-14T22:20:23.358Z,0.25
2019-01-14T22:25:20.360Z,0.14
2019-01-14T22:30:26.906Z,0.17
2019-01-14T22:35:23.801Z,0.12
2019-01-14T22:40:21.652Z,0.24
2019-01-14T22:45:18.569Z,0.22
2019-01-14T22:50:17.721Z,0.31
2019-01-14T22:55:14.643Z,0.25
2019-01-14T23:00:55.877Z,0.12
2019-01-14T23:05:52.791Z,0.30
2019-01-14T23:10:50.903Z,0.16
2019-01-14T23:15:47.913Z,0.14
2019-01-14T23:20:44.867Z,0.11
2019-01-14T23:25:41.767Z,0.05
2019-01-14T23:30:39.196Z,0.10
2019-01-14T23:35:36.141Z,0.09
2019-01-14T23:40:33.549Z,0.21
2019-01-14T23:45:30.474Z,0.17
2019-01-14T23:50:28.062Z,0.28
2019-01-14T23:55:24.962Z,0.34
